createdAt,value
2023-04-21T00:01:48.706Z,8.71
2023-04-21T00:04:16.488Z,8.81
2023-04-21T00:06:44.397Z,8.79
2023-04-21T00:09:11.466Z,8.70
2023-04-21T00:11:38.309Z,8.68
2023-04-21T00:14:05.115Z,8.73
2023-04-21T00:16:32.076Z,8.75
2023-04-21T00:18:59.253Z,8.63
2023-04-21T00:21:26.770Z,8.65
2023-04-21T00:23:54.001Z,8.70
2023-04-21T00:26:20.990Z,8.73
2023-04-21T00:28:49.370Z,8.72
2023-04-21T00:31:16.641Z,8.57
2023-04-21T00:33:43.541Z,8.58
2023-04-21T00:36:10.412Z,8.51
2023-04-21T00:38:37.103Z,8.56
2023-04-21T00:41:04.868Z,8.49
2023-04-21T00:43:31.695Z,8.50
2023-04-21T00:45:58.589Z,8.57
2023-04-21T00:48:25.326Z,8.48
2023-04-21T00:50:52.202Z,8.30
2023-04-21T00:53:20.008Z,8.25
2023-04-21T00:55:47.256Z,8.24
2023-04-21T00:58:13.940Z,8.21
2023-04-21T01:00:40.725Z,8.45
2023-04-21T01:03:08.168Z,8.29
2023-04-21T01:05:35.161Z,8.33
2023-04-21T01:08:02.746Z,8.48
2023-04-21T01:10:29.422Z,8.57
2023-04-21T01:12:56.189Z,8.29
2023-04-21T01:15:23.048Z,8.10
2023-04-21T01:17:50.219Z,8.20
2023-04-21T01:20:16.918Z,8.30
2023-04-21T01:22:44.987Z,8.33
2023-04-21T01:25:12.970Z,8.32
2023-04-21T01:27:39.661Z,8.40
2023-04-21T01:30:08.871Z,8.40
2023-04-21T01:32:35.919Z,8.26
2023-04-21T01:35:03.260Z,8.23
2023-04-21T01:37:34.860Z,8.18
2023-04-21T01:40:07.079Z,8.21
2023-04-21T01:42:35.975Z,8.33
2023-04-21T01:45:03.189Z,8.39
2023-04-21T01:47:33.302Z,8.20
2023-04-21T01:50:00.150Z,8.37
2023-04-21T01:52:26.962Z,8.32
2023-04-21T01:54:54.781Z,8.38
2023-04-21T01:57:21.491Z,7.99
2023-04-21T01:59:51.135Z,7.77
2023-04-21T02:02:18.014Z,7.93
2023-04-21T02:04:44.736Z,8.01
2023-04-21T02:07:11.644Z,7.86
2023-04-21T02:09:40.417Z,7.88
2023-04-21T02:12:09.039Z,7.82
2023-04-21T02:14:37.602Z,7.93
2023-04-21T02:17:07.775Z,8.05
2023-04-21T02:19:34.469Z,7.97
2023-04-21T02:22:01.094Z,7.95
2023-04-21T02:24:28.446Z,7.83
2023-04-21T02:26:55.174Z,7.73
2023-04-21T02:29:21.991Z,7.91
2023-04-21T02:32:00.687Z,7.77
2023-04-21T02:34:32.215Z,7.85
2023-04-21T02:36:59.758Z,7.83
2023-04-21T02:39:26.855Z,7.87
2023-04-21T02:41:53.512Z,7.80
2023-04-21T02:44:21.284Z,7.71
2023-04-21T02:46:48.057Z,7.74
2023-04-21T02:49:14.776Z,7.77
2023-04-21T02:51:41.611Z,7.81
2023-04-21T02:54:08.484Z,7.86
2023-04-21T02:56:35.400Z,7.68
2023-04-21T02:59:02.017Z,7.72
2023-04-21T03:01:28.943Z,7.54
2023-04-21T03:03:55.779Z,7.60
2023-04-21T03:06:22.906Z,7.44
2023-04-21T03:08:49.667Z,7.36
2023-04-21T03:11:16.365Z,7.24
2023-04-21T03:13:43.078Z,7.02
2023-04-21T03:16:09.798Z,7.04
2023-04-21T03:18:36.570Z,7.17
2023-04-21T03:21:03.524Z,6.98
2023-04-21T03:23:30.649Z,6.63
2023-04-21T03:25:57.504Z,6.74
2023-04-21T03:28:24.218Z,6.86
2023-04-21T03:30:51.974Z,6.73
2023-04-21T03:33:18.772Z,6.52
2023-04-21T03:35:45.972Z,6.60
2023-04-21T03:38:12.759Z,6.73
2023-04-21T03:40:39.409Z,6.67
2023-04-21T03:43:06.627Z,6.67
2023-04-21T03:45:36.052Z,6.64
2023-04-21T03:48:03.736Z,6.46
2023-04-21T03:50:30.661Z,6.47
2023-04-21T03:52:57.968Z,6.71
2023-04-21T03:55:24.678Z,6.46
2023-04-21T03:57:51.513Z,6.52
2023-04-21T04:00:18.256Z,6.48
2023-04-21T04:02:45.339Z,6.34
2023-04-21T04:05:12.252Z,6.61
2023-04-21T04:07:39.002Z,6.43
2023-04-21T04:10:06.009Z,6.37
2023-04-21T04:12:32.716Z,6.42
2023-04-21T04:14:59.385Z,6.25
2023-04-21T04:17:26.293Z,6.57
2023-04-21T04:19:53.034Z,6.42
2023-04-21T04:22:20.595Z,6.23
2023-04-21T04:24:47.916Z,6.36
2023-04-21T04:27:14.655Z,6.69
2023-04-21T04:29:41.469Z,6.60
2023-04-21T04:32:11.073Z,6.32
2023-04-21T04:34:38.219Z,6.27
2023-04-21T04:37:04.910Z,6.31
2023-04-21T04:39:32.149Z,6.37
2023-04-21T04:41:59.367Z,6.55
2023-04-21T04:44:26.005Z,6.58
2023-04-21T04:46:54.091Z,6.73
2023-04-21T04:49:21.737Z,6.76
2023-04-21T04:51:50.515Z,6.72
2023-04-21T04:54:17.332Z,6.59
2023-04-21T04:56:45.362Z,6.73
2023-04-21T04:59:12.302Z,6.68
2023-04-21T05:01:40.596Z,6.57
2023-04-21T05:04:07.537Z,6.74
2023-04-21T05:06:34.438Z,6.83
2023-04-21T05:09:01.344Z,6.81
2023-04-21T05:11:28.179Z,6.66
2023-04-21T05:13:54.911Z,6.47
2023-04-21T05:16:21.584Z,6.72
2023-04-21T05:18:50.983Z,6.42
2023-04-21T05:21:27.614Z,6.70
2023-04-21T05:23:58.805Z,6.76
2023-04-21T05:26:27.476Z,6.48
2023-04-21T05:28:58.871Z,6.55
2023-04-21T05:31:26.328Z,6.49
2023-04-21T05:33:53.469Z,6.58
2023-04-21T05:36:20.593Z,6.68
2023-04-21T05:38:47.793Z,6.87
2023-04-21T05:41:14.849Z,6.88
2023-04-21T05:43:41.608Z,6.82
2023-04-21T05:46:10.133Z,6.82
2023-04-21T05:48:37.082Z,6.76
2023-04-21T05:51:11.044Z,6.80
2023-04-21T05:53:39.196Z,6.75
2023-04-21T05:56:08.308Z,6.47
2023-04-21T05:58:35.919Z,6.79
2023-04-21T06:01:02.823Z,6.89
2023-04-21T06:03:33.425Z,6.83
2023-04-21T06:06:02.269Z,6.89
2023-04-21T06:08:29.416Z,6.76
2023-04-21T06:10:56.223Z,6.83
2023-04-21T06:13:22.977Z,7.06
2023-04-21T06:15:49.655Z,6.98
2023-04-21T06:18:17.002Z,6.99
2023-04-21T06:20:50.628Z,6.71
2023-04-21T06:23:17.648Z,6.89
2023-04-21T06:25:44.348Z,6.80
2023-04-21T06:28:11.534Z,7.09
2023-04-21T06:30:38.256Z,7.01
2023-04-21T06:33:06.647Z,7.31
2023-04-21T06:35:34.544Z,7.35
2023-04-21T06:38:01.358Z,7.45
2023-04-21T06:40:28.098Z,7.42
2023-04-21T06:42:54.777Z,7.64
2023-04-21T06:45:21.486Z,7.93
2023-04-21T06:47:48.240Z,7.90
2023-04-21T06:50:14.984Z,8.32
2023-04-21T06:52:41.604Z,8.25
2023-04-21T06:55:08.565Z,8.49
2023-04-21T06:57:35.594Z,7.99
2023-04-21T07:00:02.639Z,7.86
2023-04-21T07:02:33.555Z,7.90
2023-04-21T07:05:00.343Z,7.76
2023-04-21T07:07:27.150Z,7.65
2023-04-21T07:09:53.791Z,7.66
2023-04-21T07:12:20.663Z,7.56
2023-04-21T07:14:47.699Z,7.50
2023-04-21T07:17:14.352Z,7.62
2023-04-21T07:19:41.236Z,7.57
2023-04-21T07:22:08.009Z,7.44
2023-04-21T07:24:35.499Z,7.45
2023-04-21T07:27:04.952Z,7.55
2023-04-21T07:29:31.806Z,7.42
2023-04-21T07:31:58.553Z,7.83
2023-04-21T07:34:25.661Z,8.45
2023-04-21T07:36:52.800Z,8.72
2023-04-21T07:39:19.675Z,9.08
2023-04-21T07:41:46.521Z,9.22
2023-04-21T07:44:13.369Z,9.22
2023-04-21T07:46:40.375Z,9.36
2023-04-21T07:49:07.210Z,9.54
2023-04-21T07:51:33.869Z,9.86
2023-04-21T07:54:00.663Z,10.01
2023-04-21T07:56:27.497Z,10.26
2023-04-21T07:58:54.149Z,10.73
2023-04-21T08:01:21.015Z,10.67
2023-04-21T08:03:47.989Z,10.57
2023-04-21T08:06:15.052Z,10.72
2023-04-21T08:08:41.868Z,11.00
2023-04-21T08:11:10.468Z,10.99
2023-04-21T08:13:38.006Z,10.94
2023-04-21T08:16:05.099Z,11.64
2023-04-21T08:18:31.810Z,11.42
2023-04-21T08:20:58.610Z,11.27
2023-04-21T08:23:25.608Z,11.25
2023-04-21T08:25:52.350Z,11.50
2023-04-21T08:28:19.024Z,11.64
2023-04-21T08:30:45.881Z,12.07
2023-04-21T08:33:13.977Z,11.94
2023-04-21T08:35:54.793Z,12.12
2023-04-21T08:38:29.575Z,12.18
2023-04-21T08:40:59.571Z,12.19
2023-04-21T08:43:26.658Z,12.38
2023-04-21T08:45:56.047Z,12.32
2023-04-21T08:48:24.146Z,12.27
2023-04-21T08:50:51.682Z,12.65
2023-04-21T08:53:18.392Z,12.69
2023-04-21T08:55:49.289Z,12.88
2023-04-21T08:58:17.979Z,12.74
2023-04-21T09:00:44.742Z,12.42
2023-04-21T09:03:23.281Z,12.34
2023-04-21T09:06:05.510Z,12.75
2023-04-21T09:08:33.848Z,12.99
2023-04-21T09:11:01.689Z,12.62
2023-04-21T09:13:34.688Z,12.95
2023-04-21T09:16:05.660Z,13.08
2023-04-21T09:18:37.315Z,13.13
2023-04-21T09:21:17.367Z,12.99
2023-04-21T09:23:49.867Z,12.87
2023-04-21T09:26:18.941Z,12.76
2023-04-21T09:28:47.847Z,13.30
2023-04-21T09:31:20.228Z,13.12
2023-04-21T09:33:57.674Z,13.23
2023-04-21T09:36:28.039Z,13.27
2023-04-21T09:39:13.093Z,13.29
2023-04-21T09:41:44.228Z,13.08
2023-04-21T09:44:10.924Z,13.30
2023-04-21T09:46:38.383Z,13.15
2023-04-21T09:49:06.383Z,13.30
2023-04-21T09:54:29.770Z,13.83
2023-04-21T09:57:01.681Z,14.00
2023-04-21T09:59:35.906Z,13.90
2023-04-21T10:02:07.483Z,14.08
2023-04-21T10:04:37.296Z,13.62
2023-04-21T10:07:04.657Z,13.86
2023-04-21T10:09:38.878Z,13.85
2023-04-21T10:12:09.015Z,13.94
2023-04-21T10:14:36.367Z,13.66
2023-04-21T10:17:08.552Z,14.04
2023-04-21T10:19:39.904Z,14.45
2023-04-21T10:22:11.036Z,14.15
2023-04-21T10:24:40.328Z,14.27
2023-04-21T10:27:11.610Z,14.33
2023-04-21T10:29:55.528Z,14.11
2023-04-21T10:32:41.516Z,14.03
2023-04-21T10:35:13.681Z,14.07
2023-04-21T10:37:42.283Z,14.27
2023-04-21T10:40:44.366Z,14.18
2023-04-21T10:43:49.578Z,14.52
2023-04-21T10:46:36.527Z,14.17
2023-04-21T10:49:06.358Z,14.45
2023-04-21T10:51:33.024Z,14.38
2023-04-21T10:53:59.669Z,14.32
2023-04-21T10:56:26.266Z,14.57
2023-04-21T10:58:53.279Z,14.88
2023-04-21T11:01:20.132Z,14.60
2023-04-21T11:03:47.057Z,14.69
2023-04-21T11:06:18.498Z,14.83
2023-04-21T11:08:57.870Z,15.14
2023-04-21T11:11:24.746Z,14.94
2023-04-21T11:13:53.226Z,14.85
2023-04-21T11:16:20.796Z,14.91
2023-04-21T11:18:47.862Z,15.22
2023-04-21T11:21:21.538Z,15.31
2023-04-21T11:23:50.493Z,15.21
2023-04-21T11:26:17.952Z,15.43
2023-04-21T11:28:47.949Z,15.45
2023-04-21T11:31:15.589Z,15.27
2023-04-21T11:33:42.370Z,15.01
2023-04-21T11:36:24.657Z,15.36
2023-04-21T11:38:51.610Z,15.30
2023-04-21T11:41:22.968Z,15.31
2023-04-21T11:43:51.230Z,15.35
2023-04-21T11:46:27.407Z,15.36
2023-04-21T11:49:04.896Z,15.64
2023-04-21T11:51:36.578Z,15.58
2023-04-21T11:54:06.766Z,15.70
2023-04-21T11:56:38.584Z,15.84
2023-04-21T11:59:08.768Z,15.90
2023-04-21T12:01:42.296Z,15.99
2023-04-21T12:04:14.821Z,15.87
2023-04-21T12:06:41.952Z,15.78
2023-04-21T12:09:08.731Z,15.82
2023-04-21T12:11:35.955Z,15.92
2023-04-21T12:14:02.665Z,16.04
2023-04-21T12:16:29.530Z,16.00
2023-04-21T12:18:57.013Z,16.03
2023-04-21T12:21:28.779Z,16.03
2023-04-21T12:23:55.553Z,15.99
2023-04-21T12:26:23.860Z,15.82
2023-04-21T12:28:51.747Z,15.97
2023-04-21T12:31:19.079Z,16.00
2023-04-21T12:33:46.055Z,16.16
2023-04-21T12:36:12.839Z,16.19
2023-04-21T12:38:39.635Z,16.21
2023-04-21T12:41:06.320Z,16.30
2023-04-21T12:43:33.031Z,16.26
2023-04-21T12:46:00.008Z,16.21
2023-04-21T12:48:26.791Z,16.11
2023-04-21T12:50:53.490Z,16.28
2023-04-21T12:53:20.258Z,16.31
2023-04-21T12:55:56.828Z,16.47
2023-04-21T12:58:28.033Z,16.60
2023-04-21T13:00:55.562Z,16.49
2023-04-21T13:03:22.404Z,16.48
2023-04-21T13:05:49.155Z,16.41
2023-04-21T13:08:16.498Z,16.54
2023-04-21T13:10:43.264Z,16.70
2023-04-21T13:13:09.973Z,16.83
2023-04-21T13:15:36.777Z,16.88
2023-04-21T13:18:03.528Z,16.91
2023-04-21T13:20:31.270Z,16.94
2023-04-21T13:22:58.101Z,16.99
2023-04-21T13:25:24.814Z,16.99
2023-04-21T13:27:53.345Z,17.03
2023-04-21T13:30:20.306Z,17.01
2023-04-21T13:32:48.500Z,17.12
2023-04-21T13:35:15.249Z,17.13
2023-04-21T13:37:42.211Z,17.19
2023-04-21T13:40:09.997Z,17.23
2023-04-21T13:42:39.325Z,17.48
2023-04-21T13:45:06.559Z,17.70
2023-04-21T13:47:33.962Z,17.79
2023-04-21T13:50:01.026Z,17.96
2023-04-21T13:52:27.775Z,17.94
2023-04-21T13:54:54.604Z,17.98
2023-04-21T13:57:21.361Z,18.28
2023-04-21T13:59:48.090Z,18.39
2023-04-21T14:02:14.860Z,18.39
2023-04-21T14:04:42.035Z,18.43
2023-04-21T14:07:09.078Z,18.48
2023-04-21T14:09:36.047Z,18.63
2023-04-21T14:12:03.572Z,18.56
2023-04-21T14:14:38.565Z,18.55
2023-04-21T14:17:07.287Z,18.71
2023-04-21T14:19:35.591Z,18.99
2023-04-21T14:22:02.598Z,19.16
2023-04-21T14:24:32.124Z,19.27
2023-04-21T14:26:59.216Z,19.31
2023-04-21T14:29:25.941Z,19.19
2023-04-21T14:31:53.881Z,19.24
2023-04-21T14:34:20.554Z,19.27
2023-04-21T14:36:49.846Z,19.25
2023-04-21T14:39:16.800Z,19.40
2023-04-21T14:41:43.434Z,19.64
2023-04-21T14:44:10.294Z,19.31
2023-04-21T14:46:37.256Z,19.32
2023-04-21T14:49:04.267Z,19.76
2023-04-21T14:51:31.935Z,20.28
2023-04-21T14:53:58.664Z,20.42
2023-04-21T14:56:25.483Z,22.54
2023-04-21T14:58:52.220Z,28.80
2023-04-21T15:01:19.267Z,32.88
2023-04-21T15:03:46.288Z,34.80
2023-04-21T15:06:13.109Z,34.93
2023-04-21T15:08:41.059Z,35.22
2023-04-21T15:11:08.039Z,36.25
2023-04-21T15:13:34.781Z,36.73
2023-04-21T15:16:01.414Z,38.05
2023-04-21T15:18:28.071Z,39.23
2023-04-21T15:20:55.330Z,39.41
2023-04-21T15:23:22.001Z,39.43
2023-04-21T15:25:48.668Z,31.78
2023-04-21T15:28:15.324Z,26.32
2023-04-21T15:30:42.111Z,24.25
2023-04-21T15:33:08.877Z,22.88
2023-04-21T15:35:36.292Z,21.98
2023-04-21T15:38:03.165Z,21.38
2023-04-21T15:40:30.228Z,20.82
2023-04-21T15:42:56.863Z,20.66
2023-04-21T15:45:23.543Z,20.50
2023-04-21T15:47:50.456Z,20.23
2023-04-21T15:50:17.318Z,19.93
2023-04-21T15:52:44.305Z,19.76
2023-04-21T15:55:12.043Z,19.75
2023-04-21T15:57:39.677Z,19.64
2023-04-21T16:00:07.377Z,19.48
2023-04-21T16:02:35.965Z,19.43
2023-04-21T16:05:03.148Z,19.47
2023-04-21T16:07:31.683Z,19.38
2023-04-21T16:09:58.538Z,19.45
2023-04-21T16:12:25.444Z,19.43
2023-04-21T16:14:57.686Z,19.28
2023-04-21T16:17:32.620Z,19.04
2023-04-21T16:19:59.335Z,18.95
2023-04-21T16:22:26.218Z,18.77
2023-04-21T16:24:53.259Z,18.73
2023-04-21T16:27:20.350Z,18.53
2023-04-21T16:29:47.319Z,18.50
2023-04-21T16:32:13.981Z,18.51
2023-04-21T16:34:41.539Z,18.27
2023-04-21T16:37:08.689Z,17.87
2023-04-21T16:39:35.698Z,16.72
2023-04-21T16:42:02.380Z,16.36
2023-04-21T16:44:29.021Z,16.50
2023-04-21T16:46:55.826Z,16.18
2023-04-21T16:49:22.848Z,16.53
2023-04-21T16:51:49.540Z,16.20
2023-04-21T16:54:16.215Z,15.78
2023-04-21T16:56:43.551Z,15.71
2023-04-21T16:59:10.542Z,15.60
2023-04-21T17:01:37.358Z,15.47
2023-04-21T17:04:04.447Z,15.55
2023-04-21T17:06:31.880Z,15.55
2023-04-21T17:09:01.587Z,15.41
2023-04-21T17:11:29.876Z,15.60
2023-04-21T17:13:56.617Z,15.98
2023-04-21T17:16:23.330Z,15.84
2023-04-21T17:18:50.101Z,15.85
2023-04-21T17:21:16.987Z,15.98
2023-04-21T17:23:43.670Z,16.17
2023-04-21T17:26:12.914Z,16.20
2023-04-21T17:28:40.028Z,16.43
2023-04-21T17:31:15.002Z,16.28
2023-04-21T17:33:44.127Z,16.23
2023-04-21T17:36:11.562Z,16.23
2023-04-21T17:38:38.352Z,16.33
2023-04-21T17:41:06.777Z,16.29
2023-04-21T17:43:33.528Z,16.39
2023-04-21T17:46:00.478Z,16.60
2023-04-21T17:48:27.327Z,16.38
2023-04-21T17:50:54.051Z,16.56
2023-04-21T17:53:21.313Z,16.44
2023-04-21T17:55:48.092Z,16.33
2023-04-21T17:58:14.948Z,16.35
2023-04-21T18:00:41.728Z,16.38
2023-04-21T18:03:08.559Z,16.32
2023-04-21T18:05:35.647Z,16.22
2023-04-21T18:08:03.001Z,16.09
2023-04-21T18:10:30.064Z,16.09
2023-04-21T18:12:57.908Z,16.06
2023-04-21T18:15:24.752Z,16.02
2023-04-21T18:17:53.064Z,15.89
2023-04-21T18:20:20.155Z,16.02
2023-04-21T18:22:50.115Z,15.76
2023-04-21T18:25:27.348Z,15.61
2023-04-21T18:28:04.965Z,15.57
2023-04-21T18:30:31.666Z,15.55
2023-04-21T18:32:58.560Z,15.61
2023-04-21T18:35:25.216Z,15.64
2023-04-21T18:37:51.961Z,15.72
2023-04-21T18:40:18.726Z,15.83
2023-04-21T18:42:46.602Z,15.70
2023-04-21T18:45:13.451Z,15.53
2023-04-21T18:47:40.526Z,15.41
2023-04-21T18:50:10.315Z,15.31
2023-04-21T18:52:37.018Z,15.15
2023-04-21T18:55:04.335Z,15.14
2023-04-21T18:57:31.237Z,15.12
2023-04-21T18:59:59.170Z,14.89
2023-04-21T19:02:26.036Z,14.83
2023-04-21T19:04:53.282Z,14.91
2023-04-21T19:07:20.072Z,14.97
2023-04-21T19:09:47.746Z,15.17
2023-04-21T19:12:14.652Z,15.32
2023-04-21T19:14:47.300Z,15.18
2023-04-21T19:17:15.551Z,15.28
2023-04-21T19:19:42.454Z,15.41
2023-04-21T19:22:09.261Z,15.14
2023-04-21T19:24:36.092Z,14.93
2023-04-21T19:27:03.480Z,14.95
2023-04-21T19:29:31.320Z,14.96
2023-04-21T19:31:58.756Z,14.93
2023-04-21T19:34:25.565Z,14.84
2023-04-21T19:36:52.868Z,14.69
2023-04-21T19:39:19.806Z,14.60
2023-04-21T19:41:46.459Z,14.55
2023-04-21T19:44:13.170Z,14.53
2023-04-21T19:46:42.673Z,14.50
2023-04-21T19:49:13.248Z,14.40
2023-04-21T19:51:41.189Z,14.38
2023-04-21T19:54:11.820Z,14.41
2023-04-21T19:56:40.817Z,14.49
2023-04-21T19:59:07.764Z,14.64
2023-04-21T20:01:34.604Z,14.70
2023-04-21T20:04:02.608Z,14.54
2023-04-21T20:06:29.649Z,14.70
2023-04-21T20:08:56.502Z,14.92
2023-04-21T20:11:23.522Z,14.95
2023-04-21T20:13:50.507Z,14.79
2023-04-21T20:16:18.225Z,14.80
2023-04-21T20:18:45.037Z,14.66
2023-04-21T20:21:11.853Z,14.63
2023-04-21T20:23:38.471Z,15.02
2023-04-21T20:26:05.166Z,15.07
2023-04-21T20:28:32.988Z,15.10
2023-04-21T20:30:59.854Z,15.07
2023-04-21T20:33:27.287Z,14.90
2023-04-21T20:35:54.279Z,15.00
2023-04-21T20:38:23.888Z,14.98
2023-04-21T20:40:53.768Z,15.01
2023-04-21T20:43:20.636Z,14.97
2023-04-21T20:45:47.559Z,14.89
2023-04-21T20:48:14.540Z,15.03
2023-04-21T20:50:42.773Z,15.05
2023-04-21T20:53:11.528Z,14.99
2023-04-21T20:55:38.210Z,14.83
2023-04-21T20:58:05.014Z,14.78
2023-04-21T21:00:34.154Z,14.83
2023-04-21T21:03:01.502Z,14.83
2023-04-21T21:05:33.439Z,14.80
2023-04-21T21:08:00.276Z,14.69
2023-04-21T21:10:28.460Z,14.77
2023-04-21T21:12:55.225Z,14.82
2023-04-21T21:15:21.914Z,14.60
2023-04-21T21:17:48.688Z,14.39
2023-04-21T21:20:15.435Z,14.42
2023-04-21T21:22:43.253Z,14.49
2023-04-21T21:25:10.511Z,14.47
2023-04-21T21:27:37.300Z,14.44
2023-04-21T21:30:04.396Z,14.47
2023-04-21T21:32:31.514Z,14.50
2023-04-21T21:34:58.224Z,14.44
2023-04-21T21:37:26.534Z,14.45
2023-04-21T21:39:55.267Z,14.44
2023-04-21T21:42:22.595Z,14.48
2023-04-21T21:44:49.413Z,14.41
2023-04-21T21:47:17.468Z,14.42
2023-04-21T21:49:44.433Z,14.22
2023-04-21T21:52:11.523Z,14.22
2023-04-21T21:54:38.324Z,14.20
2023-04-21T21:57:05.046Z,14.05
2023-04-21T21:59:31.831Z,13.99
2023-04-21T22:01:58.506Z,14.06
2023-04-21T22:04:25.237Z,14.04
2023-04-21T22:06:51.926Z,13.87
2023-04-21T22:09:19.119Z,13.63
2023-04-21T22:11:46.208Z,13.59
2023-04-21T22:14:22.617Z,13.70
2023-04-21T22:16:53.019Z,13.60
2023-04-21T22:19:20.792Z,13.76
2023-04-21T22:21:47.947Z,13.83
2023-04-21T22:24:15.125Z,13.85
2023-04-21T22:26:43.115Z,13.71
2023-04-21T22:29:10.239Z,13.81
2023-04-21T22:31:37.887Z,13.79
2023-04-21T22:34:04.821Z,13.82
2023-04-21T22:36:32.555Z,13.77
2023-04-21T22:38:59.880Z,13.67
2023-04-21T22:41:27.697Z,13.66
2023-04-21T22:43:54.461Z,13.67
2023-04-21T22:46:21.384Z,13.56
2023-04-21T22:48:48.720Z,13.72
2023-04-21T22:51:15.409Z,13.63
2023-04-21T22:53:42.027Z,13.58
2023-04-21T22:56:08.685Z,13.53
2023-04-21T22:58:35.801Z,13.40
2023-04-21T23:01:02.780Z,13.32
2023-04-21T23:03:31.124Z,13.25
2023-04-21T23:05:58.735Z,13.20
2023-04-21T23:08:25.370Z,13.04
2023-04-21T23:10:52.576Z,13.06
2023-04-21T23:13:19.214Z,13.05
2023-04-21T23:15:45.904Z,13.04
2023-04-21T23:18:12.546Z,13.29
2023-04-21T23:20:39.338Z,13.23
2023-04-21T23:23:06.433Z,13.22
2023-04-21T23:25:33.253Z,13.33
2023-04-21T23:27:59.967Z,13.44
2023-04-21T23:30:26.617Z,13.50
2023-04-21T23:32:53.363Z,13.56
2023-04-21T23:35:20.126Z,13.44
2023-04-21T23:37:46.789Z,13.32
2023-04-21T23:40:13.630Z,13.49
2023-04-21T23:42:40.610Z,13.46
2023-04-21T23:45:07.913Z,13.60
2023-04-21T23:47:34.567Z,13.63
2023-04-21T23:50:01.443Z,13.62
2023-04-21T23:52:30.494Z,13.69
2023-04-21T23:54:57.360Z,13.52
2023-04-21T23:57:23.988Z,13.62
2023-04-21T23:59:50.614Z,13.78
